Time;durP1;ratioP1;P1;durP2;ratioP2;P2;SDS_P1;SDS_P2;PMS_P1;PMS_P2;Temp;Humidity;BMP_temperature;BMP_pressure;BME280_temperature;BME280_humidity;BME280_pressure;Samples;Min_cycle;Max_cycle;Signal;HPM_P1;HPM_P2
2022/09/16 00:01:59;;;;;;;0.95;0.20;;;;;;;;;;1851903;76;26657;-53
2022/09/16 00:04:26;;;;;;;1.45;0.30;;;;;;;;;;1866913;76;27291;-59
2022/09/16 00:06:53;;;;;;;0.40;0.15;;;;;;;;;;1864964;76;26272;-54
2022/09/16 00:09:20;;;;;;;1.42;0.20;;;;;;;;;;1856372;76;26285;-53
2022/09/16 00:11:48;;;;;;;0.80;0.30;;;;;;;;;;1858981;76;26179;-56
2022/09/16 00:14:15;;;;;;;0.17;0.17;;;;;;;;;;1854525;75;26329;-53
2022/09/16 00:16:42;;;;;;;0.28;0.20;;;;;;;;;;1848958;76;26293;-53
2022/09/16 00:19:09;;;;;;;1.05;0.10;;;;;;;;;;1860818;76;26879;-51
2022/09/16 00:21:37;;;;;;;0.65;0.20;;;;;;;;;;1850012;76;26749;-51
2022/09/16 00:24:04;;;;;;;0.40;0.40;;;;;;;;;;1850362;75;26309;-54
2022/09/16 00:26:33;;;;;;;0.10;0.10;;;;;;;;;;1849219;76;26591;-54
2022/09/16 00:29:00;;;;;;;0.20;0.20;;;;;;;;;;1852764;76;26690;-51
2022/09/16 00:31:28;;;;;;;0.10;0.10;;;;;;;;;;1879676;76;25631;-52
2022/09/16 00:33:55;;;;;;;0.37;0.10;;;;;;;;;;1876461;76;27547;-55
2022/09/16 00:36:22;;;;;;;0.10;0.10;;;;;;;;;;1868634;76;27206;-54
2022/09/16 00:38:51;;;;;;;0.10;0.10;;;;;;;;;;1871282;76;26313;-56
2022/09/16 00:41:20;;;;;;;0.90;0.68;;;;;;;;;;1870649;76;26812;-53
2022/09/16 00:43:55;;;;;;;0.10;0.10;;;;;;;;;;1867438;76;26324;-54
2022/09/16 00:46:24;;;;;;;0.20;0.20;;;;;;;;;;1879477;76;26301;-56
2022/09/16 00:48:51;;;;;;;0.42;0.20;;;;;;;;;;1862548;75;26269;-51
2022/09/16 00:51:19;;;;;;;0.20;0.20;;;;;;;;;;1867871;76;26265;-54
2022/09/16 00:53:50;;;;;;;0.82;0.20;;;;;;;;;;1861192;76;26259;-55
2022/09/16 00:56:21;;;;;;;0.10;0.10;;;;;;;;;;1877672;75;26291;-55
2022/09/16 00:58:49;;;;;;;0.85;0.40;;;;;;;;;;1865940;75;26691;-56
2022/09/16 01:01:17;;;;;;;0.47;0.40;;;;;;;;;;1885972;75;26235;-55
2022/09/16 01:03:54;;;;;;;0.10;0.10;;;;;;;;;;1870876;75;26308;-55
2022/09/16 01:06:23;;;;;;;0.10;0.10;;;;;;;;;;1879503;76;26295;-57
2022/09/16 01:08:51;;;;;;;0.30;0.20;;;;;;;;;;1878099;76;26787;-51
2022/09/16 01:11:18;;;;;;;0.20;0.20;;;;;;;;;;1880028;75;26246;-52
2022/09/16 01:13:46;;;;;;;1.12;0.28;;;;;;;;;;1860791;75;26343;-58
2022/09/16 01:16:33;;;;;;;0.20;0.20;;;;;;;;;;1872489;75;26792;-59
2022/09/16 01:19:05;;;;;;;0.20;0.20;;;;;;;;;;1885951;75;26316;-51
2022/09/16 01:21:33;;;;;;;1.85;0.30;;;;;;;;;;1868669;75;26198;-54
2022/09/16 01:24:19;;;;;;;0.10;0.10;;;;;;;;;;1877759;75;26307;-54
2022/09/16 01:27:00;;;;;;;0.10;0.10;;;;;;;;;;1867423;75;26301;-60
2022/09/16 01:29:35;;;;;;;0.30;0.10;;;;;;;;;;1871704;75;26736;-55
2022/09/16 01:32:13;;;;;;;0.10;0.10;;;;;;;;;;1876558;75;26231;-51
2022/09/16 01:34:51;;;;;;;0.50;0.30;;;;;;;;;;1871902;75;26193;-54
2022/09/16 01:37:22;;;;;;;0.20;0.20;;;;;;;;;;1874832;75;26276;-53
2022/09/16 01:39:54;;;;;;;0.20;0.20;;;;;;;;;;1875381;75;26310;-56
2022/09/16 01:42:23;;;;;;;0.45;0.20;;;;;;;;;;1895669;75;26262;-54
2022/09/16 01:44:52;;;;;;;0.68;0.10;;;;;;;;;;1885986;75;26286;-55
2022/09/16 01:47:21;;;;;;;0.17;0.17;;;;;;;;;;1893549;75;26242;-54
2022/09/16 01:49:56;;;;;;;1.17;0.20;;;;;;;;;;1871332;75;26651;-56
2022/09/16 01:52:28;;;;;;;0.20;0.20;;;;;;;;;;1879610;75;26310;-56
2022/09/16 01:55:02;;;;;;;0.10;0.10;;;;;;;;;;1866008;75;26724;-54
2022/09/16 01:57:31;;;;;;;0.30;0.30;;;;;;;;;;1881006;75;26264;-63
2022/09/16 02:00:06;;;;;;;0.20;0.20;;;;;;;;;;1878671;75;26303;-52
2022/09/16 02:02:38;;;;;;;0.35;0.15;;;;;;;;;;1888150;75;26324;-50
2022/09/16 02:05:06;;;;;;;0.40;0.20;;;;;;;;;;1880072;75;26270;-58
2022/09/16 02:07:35;;;;;;;0.42;0.20;;;;;;;;;;1880796;74;26331;-49
2022/09/16 02:10:05;;;;;;;0.40;0.10;;;;;;;;;;1883435;74;26330;-61
2022/09/16 02:12:34;;;;;;;0.20;0.13;;;;;;;;;;1877960;75;26262;-51
2022/09/16 02:15:06;;;;;;;0.30;0.28;;;;;;;;;;1860837;75;26757;-53
2022/09/16 02:17:35;;;;;;;0.20;0.20;;;;;;;;;;1860304;76;26267;-56
2022/09/16 02:20:07;;;;;;;0.55;0.33;;;;;;;;;;1856043;76;26326;-55
2022/09/16 02:22:35;;;;;;;1.45;0.10;;;;;;;;;;1819021;77;26300;-53
2022/09/16 02:25:04;;;;;;;0.42;0.20;;;;;;;;;;1791413;78;26289;-55
2022/09/16 02:27:32;;;;;;;0.20;0.20;;;;;;;;;;1854415;76;26192;-56
2022/09/16 02:30:01;;;;;;;0.57;0.20;;;;;;;;;;1852392;76;26317;-50
2022/09/16 02:32:30;;;;;;;0.37;0.20;;;;;;;;;;1868793;76;26690;-54
2022/09/16 02:34:57;;;;;;;0.28;0.15;;;;;;;;;;1854122;76;26270;-57
2022/09/16 02:37:27;;;;;;;1.70;0.30;;;;;;;;;;1862577;76;26515;-60
2022/09/16 02:39:56;;;;;;;0.30;0.30;;;;;;;;;;1850077;75;26336;-56
2022/09/16 02:42:24;;;;;;;2.65;0.30;;;;;;;;;;1856683;76;26434;-54
2022/09/16 02:44:51;;;;;;;2.83;1.05;;;;;;;;;;1849119;76;26202;-53
2022/09/16 02:47:23;;;;;;;1.37;0.30;;;;;;;;;;1856441;76;27467;-57
2022/09/16 02:49:55;;;;;;;1.22;0.30;;;;;;;;;;1856035;76;26302;-55
2022/09/16 02:52:24;;;;;;;3.40;0.40;;;;;;;;;;1860790;76;26824;-55
2022/09/16 02:54:58;;;;;;;4.03;0.40;;;;;;;;;;1859608;76;26759;-60
2022/09/16 02:57:26;;;;;;;2.77;0.30;;;;;;;;;;1868513;76;26743;-57
2022/09/16 02:59:53;;;;;;;0.72;0.28;;;;;;;;;;1870669;76;26255;-57
2022/09/16 03:02:21;;;;;;;2.15;0.20;;;;;;;;;;1861795;76;26695;-57
2022/09/16 03:04:48;;;;;;;3.75;0.50;;;;;;;;;;1850959;75;26630;-57
2022/09/16 03:07:16;;;;;;;0.30;0.30;;;;;;;;;;1861831;76;26273;-52
2022/09/16 03:09:44;;;;;;;1.42;0.30;;;;;;;;;;1847487;76;26451;-58
2022/09/16 03:12:16;;;;;;;2.52;0.60;;;;;;;;;;1861239;76;26304;-55
2022/09/16 03:14:51;;;;;;;2.00;0.23;;;;;;;;;;1856684;75;26306;-52
2022/09/16 03:17:23;;;;;;;2.17;0.30;;;;;;;;;;1863266;76;26702;-57
2022/09/16 03:20:09;;;;;;;0.23;0.20;;;;;;;;;;1852335;76;26686;-59
2022/09/16 03:22:38;;;;;;;1.37;0.42;;;;;;;;;;1859098;76;26307;-54
2022/09/16 03:25:14;;;;;;;1.25;0.40;;;;;;;;;;1861496;76;26245;-57
2022/09/16 03:27:51;;;;;;;1.57;0.37;;;;;;;;;;1862100;76;26659;-53
2022/09/16 03:30:19;;;;;;;1.27;0.25;;;;;;;;;;1859847;76;26259;-53
2022/09/16 03:32:48;;;;;;;0.45;0.20;;;;;;;;;;1858430;76;26710;-56
2022/09/16 03:35:26;;;;;;;2.42;0.30;;;;;;;;;;1855181;76;26772;-50
2022/09/16 03:37:55;;;;;;;0.93;0.20;;;;;;;;;;1851210;76;26597;-55
2022/09/16 03:40:23;;;;;;;1.27;0.30;;;;;;;;;;1852537;76;26274;-61
2022/09/16 03:42:50;;;;;;;1.15;0.20;;;;;;;;;;1861985;76;26320;-54
2022/09/16 03:45:19;;;;;;;0.95;0.20;;;;;;;;;;1863646;76;26241;-54
2022/09/16 03:47:48;;;;;;;0.50;0.25;;;;;;;;;;1850525;76;26328;-55
2022/09/16 03:50:16;;;;;;;1.22;0.40;;;;;;;;;;1859106;76;26816;-56
2022/09/16 03:52:43;;;;;;;0.47;0.20;;;;;;;;;;1852283;75;26294;-55
2022/09/16 03:55:11;;;;;;;0.55;0.23;;;;;;;;;;1848118;76;26235;-54
2022/09/16 03:57:38;;;;;;;0.20;0.20;;;;;;;;;;1850839;76;26857;-52
2022/09/16 04:00:06;;;;;;;0.13;0.13;;;;;;;;;;1849316;76;26557;-57
2022/09/16 04:02:34;;;;;;;0.30;0.30;;;;;;;;;;1850680;76;26333;-55
2022/09/16 04:05:02;;;;;;;0.65;0.37;;;;;;;;;;1865758;76;26760;-51
2022/09/16 04:07:32;;;;;;;0.23;0.23;;;;;;;;;;1852152;76;26271;-52
2022/09/16 04:10:00;;;;;;;0.78;0.37;;;;;;;;;;1858058;76;26263;-56
2022/09/16 04:12:28;;;;;;;2.22;0.35;;;;;;;;;;1857564;76;26562;-54
2022/09/16 04:14:55;;;;;;;0.15;0.15;;;;;;;;;;1854501;76;26314;-55
2022/09/16 04:17:23;;;;;;;0.20;0.20;;;;;;;;;;1853116;76;26659;-57
2022/09/16 04:19:51;;;;;;;0.20;0.20;;;;;;;;;;1852112;76;26238;-53
2022/09/16 04:22:19;;;;;;;0.30;0.30;;;;;;;;;;1848214;76;26316;-53
2022/09/16 04:24:46;;;;;;;0.35;0.20;;;;;;;;;;1854384;75;26266;-55
2022/09/16 04:27:13;;;;;;;0.75;0.33;;;;;;;;;;1854007;76;26273;-55
2022/09/16 04:29:41;;;;;;;0.20;0.20;;;;;;;;;;1864219;75;26408;-54
2022/09/16 04:32:08;;;;;;;0.30;0.30;;;;;;;;;;1855430;76;26274;-50
2022/09/16 04:34:36;;;;;;;0.30;0.30;;;;;;;;;;1861491;76;26246;-57
2022/09/16 04:37:04;;;;;;;1.17;0.30;;;;;;;;;;1860507;76;26357;-56
2022/09/16 04:39:31;;;;;;;0.17;0.10;;;;;;;;;;1873243;76;26234;-54
2022/09/16 04:41:59;;;;;;;0.40;0.40;;;;;;;;;;1875270;76;26819;-55
2022/09/16 04:44:29;;;;;;;0.30;0.30;;;;;;;;;;1865181;76;26269;-52
2022/09/16 04:46:56;;;;;;;1.45;0.20;;;;;;;;;;1874131;76;26263;-55
2022/09/16 04:49:24;;;;;;;0.20;0.20;;;;;;;;;;1858844;75;26534;-56
2022/09/16 04:51:51;;;;;;;1.07;0.20;;;;;;;;;;1866438;76;26316;-56
2022/09/16 04:54:18;;;;;;;0.20;0.20;;;;;;;;;;1875051;75;26242;-56
2022/09/16 04:56:45;;;;;;;0.33;0.30;;;;;;;;;;1868509;76;26286;-52
2022/09/16 04:59:13;;;;;;;0.85;0.30;;;;;;;;;;1871594;76;26253;-55
2022/09/16 05:01:40;;;;;;;0.13;0.13;;;;;;;;;;1866661;76;26231;-53
2022/09/16 05:04:09;;;;;;;0.28;0.28;;;;;;;;;;1863253;76;26263;-58
2022/09/16 05:06:38;;;;;;;0.75;0.40;;;;;;;;;;1866133;76;26251;-56
2022/09/16 05:09:06;;;;;;;0.40;0.40;;;;;;;;;;1871280;76;26228;-55
2022/09/16 05:11:35;;;;;;;0.28;0.28;;;;;;;;;;1856396;76;26255;-56
2022/09/16 05:14:04;;;;;;;1.00;0.40;;;;;;;;;;1867672;76;26765;-60
2022/09/16 05:16:31;;;;;;;3.02;0.60;;;;;;;;;;1862112;75;26317;-63
2022/09/16 05:19:00;;;;;;;0.70;0.47;;;;;;;;;;1869822;76;26663;-52
2022/09/16 05:21:28;;;;;;;1.20;0.53;;;;;;;;;;1873166;76;26753;-58
2022/09/16 05:23:57;;;;;;;2.58;0.53;;;;;;;;;;1860389;76;26198;-57
2022/09/16 05:26:26;;;;;;;2.27;0.50;;;;;;;;;;1863450;76;26763;-52
2022/09/16 05:28:54;;;;;;;4.97;0.55;;;;;;;;;;1868328;76;26647;-52
2022/09/16 05:31:23;;;;;;;2.42;0.60;;;;;;;;;;1867999;76;26646;-56
2022/09/16 05:33:54;;;;;;;0.35;0.30;;;;;;;;;;1870757;76;26702;-58
2022/09/16 05:36:22;;;;;;;1.30;0.60;;;;;;;;;;1861585;75;26273;-58
2022/09/16 05:38:49;;;;;;;0.45;0.40;;;;;;;;;;1856930;76;26841;-54
2022/09/16 05:41:17;;;;;;;1.80;0.57;;;;;;;;;;1857829;76;26234;-50
2022/09/16 05:43:44;;;;;;;0.72;0.40;;;;;;;;;;1869356;76;26306;-55
2022/09/16 05:46:13;;;;;;;2.55;0.50;;;;;;;;;;1852941;76;26270;-58
2022/09/16 05:48:40;;;;;;;3.22;0.60;;;;;;;;;;1863178;76;26301;-51
2022/09/16 05:51:07;;;;;;;1.57;0.80;;;;;;;;;;1855311;76;26560;-56
2022/09/16 05:53:35;;;;;;;2.05;0.40;;;;;;;;;;1850937;76;26374;-52
2022/09/16 05:56:03;;;;;;;0.80;0.40;;;;;;;;;;1848858;76;26278;-59
2022/09/16 05:58:32;;;;;;;1.32;0.68;;;;;;;;;;1861368;76;26296;-53
2022/09/16 06:01:00;;;;;;;0.40;0.40;;;;;;;;;;1866769;76;26719;-52
2022/09/16 06:03:28;;;;;;;2.05;0.50;;;;;;;;;;1850673;75;26800;-54
2022/09/16 06:05:59;;;;;;;1.60;0.40;;;;;;;;;;1864174;76;26286;-56
2022/09/16 06:08:28;;;;;;;0.40;0.40;;;;;;;;;;1857651;76;26519;-55
2022/09/16 06:10:56;;;;;;;0.33;0.33;;;;;;;;;;1859342;76;27369;-55
2022/09/16 06:13:23;;;;;;;2.30;0.50;;;;;;;;;;1851031;76;26242;-50
2022/09/16 06:15:53;;;;;;;0.35;0.35;;;;;;;;;;1851758;76;26387;-54
2022/09/16 06:18:21;;;;;;;0.47;0.40;;;;;;;;;;1831804;78;26287;-56
2022/09/16 06:20:48;;;;;;;0.45;0.40;;;;;;;;;;1826739;76;26307;-52
2022/09/16 06:23:16;;;;;;;0.30;0.30;;;;;;;;;;1822113;77;26709;-64
2022/09/16 06:25:44;;;;;;;0.45;0.45;;;;;;;;;;1832379;77;26252;-53
2022/09/16 06:28:11;;;;;;;0.50;0.50;;;;;;;;;;1828389;77;26314;-53
2022/09/16 06:30:38;;;;;;;1.10;0.30;;;;;;;;;;1833195;77;26852;-53
2022/09/16 06:33:08;;;;;;;2.90;0.53;;;;;;;;;;1830860;77;26317;-55
2022/09/16 06:35:35;;;;;;;0.62;0.42;;;;;;;;;;1828198;77;26271;-53
2022/09/16 06:38:02;;;;;;;0.47;0.47;;;;;;;;;;1830693;78;26272;-54
2022/09/16 06:40:29;;;;;;;0.37;0.37;;;;;;;;;;1831291;78;26299;-52
2022/09/16 06:42:57;;;;;;;2.90;0.50;;;;;;;;;;1829162;78;26366;-62
2022/09/16 06:45:24;;;;;;;0.85;0.40;;;;;;;;;;1830128;77;26369;-56
2022/09/16 06:47:51;;;;;;;1.17;0.50;;;;;;;;;;1835042;77;26833;-57
2022/09/16 06:50:19;;;;;;;1.85;0.60;;;;;;;;;;1831647;77;27080;-59
2022/09/16 06:52:47;;;;;;;3.83;0.60;;;;;;;;;;1834738;76;26766;-52
2022/09/16 06:55:15;;;;;;;2.87;0.70;;;;;;;;;;1830198;78;26783;-55
2022/09/16 06:57:43;;;;;;;3.65;0.80;;;;;;;;;;1830873;77;26291;-52
2022/09/16 07:00:11;;;;;;;0.85;0.50;;;;;;;;;;1831017;78;26263;-52
2022/09/16 07:02:38;;;;;;;0.50;0.50;;;;;;;;;;1831922;77;26347;-53
2022/09/16 07:05:07;;;;;;;1.75;0.47;;;;;;;;;;1832445;78;26298;-56
2022/09/16 07:07:35;;;;;;;1.65;0.60;;;;;;;;;;1831367;77;26390;-49
2022/09/16 07:10:02;;;;;;;4.60;0.75;;;;;;;;;;1829751;77;26771;-52
2022/09/16 07:12:30;;;;;;;1.57;0.47;;;;;;;;;;1830904;77;26267;-52
2022/09/16 07:14:57;;;;;;;0.50;0.50;;;;;;;;;;1830206;78;26268;-55
2022/09/16 07:17:26;;;;;;;0.70;0.45;;;;;;;;;;1860982;75;26349;-55
2022/09/16 07:19:53;;;;;;;2.83;1.30;;;;;;;;;;1877145;75;26889;-55
2022/09/16 07:22:20;;;;;;;0.50;0.50;;;;;;;;;;1894613;75;26278;-56
2022/09/16 07:24:48;;;;;;;0.98;0.40;;;;;;;;;;1876539;75;26376;-59
2022/09/16 07:27:15;;;;;;;1.25;0.40;;;;;;;;;;1870253;75;26236;-55
2022/09/16 07:29:42;;;;;;;0.82;0.53;;;;;;;;;;1884404;75;26261;-51
2022/09/16 07:32:10;;;;;;;1.27;0.50;;;;;;;;;;1864071;75;27000;-51
2022/09/16 07:34:37;;;;;;;1.32;0.50;;;;;;;;;;1868597;75;26714;-52
2022/09/16 07:37:04;;;;;;;0.40;0.40;;;;;;;;;;1894720;75;26690;-51
2022/09/16 07:39:31;;;;;;;0.42;0.42;;;;;;;;;;1873192;75;26282;-52
2022/09/16 07:42:00;;;;;;;0.88;0.40;;;;;;;;;;1878593;75;26341;-50
2022/09/16 07:44:28;;;;;;;0.40;0.40;;;;;;;;;;1867245;75;26273;-48
2022/09/16 07:46:55;;;;;;;0.40;0.40;;;;;;;;;;1862401;75;26655;-54
2022/09/16 07:49:22;;;;;;;1.15;0.50;;;;;;;;;;1870627;75;26199;-49
2022/09/16 07:51:50;;;;;;;0.42;0.42;;;;;;;;;;1872483;75;26254;-54
2022/09/16 07:54:18;;;;;;;1.65;0.42;;;;;;;;;;1877986;75;26317;-56
2022/09/16 07:56:46;;;;;;;0.37;0.37;;;;;;;;;;1877844;75;26296;-54
2022/09/16 07:59:15;;;;;;;0.40;0.40;;;;;;;;;;1868806;74;26265;-50
2022/09/16 08:01:42;;;;;;;1.05;0.40;;;;;;;;;;1869216;75;26226;-56
2022/09/16 08:04:09;;;;;;;1.65;0.40;;;;;;;;;;1894700;75;26267;-52
2022/09/16 08:06:37;;;;;;;0.33;0.33;;;;;;;;;;1878901;75;26194;-54
2022/09/16 08:09:04;;;;;;;0.40;0.40;;;;;;;;;;1891689;75;26313;-56
2022/09/16 08:11:32;;;;;;;0.30;0.30;;;;;;;;;;1885258;75;26194;-55
2022/09/16 08:13:59;;;;;;;0.30;0.30;;;;;;;;;;1867992;75;26269;-58
2022/09/16 08:16:27;;;;;;;0.20;0.20;;;;;;;;;;1864008;75;26730;-55
2022/09/16 08:18:55;;;;;;;0.50;0.50;;;;;;;;;;1868799;76;26274;-52
2022/09/16 08:21:23;;;;;;;1.00;0.42;;;;;;;;;;1868561;74;26753;-54
2022/09/16 08:23:51;;;;;;;0.30;0.30;;;;;;;;;;1857844;76;26300;-50
2022/09/16 08:26:19;;;;;;;0.37;0.30;;;;;;;;;;1870093;76;26710;-56
2022/09/16 08:28:48;;;;;;;0.30;0.30;;;;;;;;;;1863394;74;26223;-58
2022/09/16 08:31:16;;;;;;;0.65;0.30;;;;;;;;;;1865953;74;26275;-55
2022/09/16 08:33:43;;;;;;;0.30;0.30;;;;;;;;;;1868796;74;26350;-57
2022/09/16 08:36:13;;;;;;;0.33;0.33;;;;;;;;;;1872514;76;26309;-59
2022/09/16 08:38:41;;;;;;;0.35;0.35;;;;;;;;;;1867002;74;26734;-54
2022/09/16 08:41:10;;;;;;;0.80;0.30;;;;;;;;;;1861126;76;26242;-53
2022/09/16 08:43:38;;;;;;;0.45;0.40;;;;;;;;;;1872078;74;26231;-55
2022/09/16 08:46:19;;;;;;;0.30;0.30;;;;;;;;;;1871832;75;26257;-56
2022/09/16 08:48:51;;;;;;;0.23;0.23;;;;;;;;;;1835427;75;26234;-52
2022/09/16 08:51:20;;;;;;;0.30;0.30;;;;;;;;;;1888635;75;26618;-52
2022/09/16 08:53:58;;;;;;;0.25;0.25;;;;;;;;;;1876209;76;26694;-53
2022/09/16 08:56:28;;;;;;;0.30;0.30;;;;;;;;;;1889250;76;26319;-53
2022/09/16 08:58:57;;;;;;;0.20;0.20;;;;;;;;;;1870830;76;26740;-53
2022/09/16 09:01:42;;;;;;;0.40;0.40;;;;;;;;;;1874593;76;27114;-51
2022/09/16 09:04:11;;;;;;;0.30;0.30;;;;;;;;;;1876766;74;26260;-52
2022/09/16 09:06:43;;;;;;;0.20;0.20;;;;;;;;;;1884981;74;26242;-57
2022/09/16 09:09:28;;;;;;;0.30;0.30;;;;;;;;;;1881213;74;26250;-56
2022/09/16 09:11:57;;;;;;;0.20;0.20;;;;;;;;;;1879770;74;27856;-56
2022/09/16 09:14:44;;;;;;;0.20;0.20;;;;;;;;;;1888040;74;26761;-51
2022/09/16 09:17:25;;;;;;;0.13;0.13;;;;;;;;;;1874906;74;26763;-52
2022/09/16 09:20:12;;;;;;;0.30;0.30;;;;;;;;;;1889917;74;26029;-56
2022/09/16 09:22:47;;;;;;;0.30;0.30;;;;;;;;;;1886113;74;26289;-60
2022/09/16 09:25:33;;;;;;;0.30;0.30;;;;;;;;;;1880792;74;27505;-57
2022/09/16 09:28:02;;;;;;;0.53;0.30;;;;;;;;;;1880470;74;26800;-58
2022/09/16 09:30:30;;;;;;;0.30;0.30;;;;;;;;;;1874378;74;26371;-49
2022/09/16 09:33:01;;;;;;;0.30;0.30;;;;;;;;;;1879230;74;26777;-60
2022/09/16 09:35:30;;;;;;;0.20;0.20;;;;;;;;;;1884719;74;27144;-59
2022/09/16 09:38:08;;;;;;;0.20;0.20;;;;;;;;;;1885750;74;26199;-59
2022/09/16 09:40:43;;;;;;;0.30;0.30;;;;;;;;;;1879748;74;26226;-53
2022/09/16 09:43:12;;;;;;;0.28;0.28;;;;;;;;;;1886204;74;26252;-55
2022/09/16 09:45:43;;;;;;;0.78;0.37;;;;;;;;;;1878689;74;26332;-55
2022/09/16 09:48:15;;;;;;;0.30;0.30;;;;;;;;;;1870250;74;26274;-56
2022/09/16 09:50:44;;;;;;;0.35;0.35;;;;;;;;;;1877286;74;26782;-52
2022/09/16 09:53:13;;;;;;;0.33;0.33;;;;;;;;;;1881386;74;26760;-59
2022/09/16 09:55:41;;;;;;;0.33;0.33;;;;;;;;;;1876672;74;26598;-53
2022/09/16 09:58:19;;;;;;;0.23;0.23;;;;;;;;;;1879135;74;26264;-59
2022/09/16 10:00:46;;;;;;;0.47;0.20;;;;;;;;;;1881225;74;26246;-54
2022/09/16 10:03:20;;;;;;;0.30;0.30;;;;;;;;;;1884535;74;26370;-60
2022/09/16 10:05:45;;;;;;;0.28;0.28;;;;;;;;;;1880996;74;26740;-57
2022/09/16 10:08:14;;;;;;;0.30;0.30;;;;;;;;;;1881519;74;26312;-54
2022/09/16 10:10:43;;;;;;;0.23;0.23;;;;;;;;;;1882909;74;26385;-55
2022/09/16 10:13:11;;;;;;;0.40;0.40;;;;;;;;;;1880271;74;26242;-49
2022/09/16 10:15:39;;;;;;;0.20;0.20;;;;;;;;;;1877639;74;26233;-53
2022/09/16 10:18:11;;;;;;;0.42;0.30;;;;;;;;;;1876261;74;26366;-57
2022/09/16 10:20:39;;;;;;;0.30;0.30;;;;;;;;;;1882586;74;26250;-54
2022/09/16 10:23:08;;;;;;;0.30;0.30;;;;;;;;;;1885156;74;26355;-55
2022/09/16 10:25:35;;;;;;;0.30;0.30;;;;;;;;;;1875866;74;26273;-57
2022/09/16 10:28:04;;;;;;;0.20;0.20;;;;;;;;;;1875043;75;26205;-50
2022/09/16 10:30:33;;;;;;;0.37;0.30;;;;;;;;;;1870590;75;26254;-52
2022/09/16 10:33:05;;;;;;;0.30;0.30;;;;;;;;;;1882673;75;26300;-54
2022/09/16 10:35:37;;;;;;;0.75;0.20;;;;;;;;;;1871182;75;26308;-55
2022/09/16 10:38:06;;;;;;;0.37;0.37;;;;;;;;;;1871529;75;26749;-58
2022/09/16 10:40:33;;;;;;;0.40;0.40;;;;;;;;;;1890236;75;26238;-50
2022/09/16 10:43:05;;;;;;;0.35;0.35;;;;;;;;;;1876075;75;26793;-54
2022/09/16 10:45:39;;;;;;;0.20;0.20;;;;;;;;;;1873526;75;26304;-51
2022/09/16 10:48:08;;;;;;;0.37;0.37;;;;;;;;;;1895021;74;26241;-57
2022/09/16 10:50:35;;;;;;;0.30;0.30;;;;;;;;;;1891860;75;26311;-54
2022/09/16 10:53:03;;;;;;;0.20;0.20;;;;;;;;;;1863690;74;26241;-55
2022/09/16 10:55:37;;;;;;;0.30;0.30;;;;;;;;;;1871969;75;26424;-54
2022/09/16 10:58:08;;;;;;;0.23;0.23;;;;;;;;;;1884380;75;26303;-54
2022/09/16 11:00:37;;;;;;;0.50;0.50;;;;;;;;;;1868559;75;26230;-49
2022/09/16 11:03:23;;;;;;;0.30;0.30;;;;;;;;;;1873163;75;26246;-54
2022/09/16 11:05:54;;;;;;;0.30;0.30;;;;;;;;;;1868793;75;26313;-52
2022/09/16 11:08:41;;;;;;;0.30;0.30;;;;;;;;;;1875275;75;26262;-50
2022/09/16 11:11:25;;;;;;;0.40;0.40;;;;;;;;;;1871921;75;26246;-52
2022/09/16 11:14:12;;;;;;;0.33;0.33;;;;;;;;;;1872193;75;26289;-55
2022/09/16 11:16:41;;;;;;;0.80;0.40;;;;;;;;;;1894195;75;26306;-53
2022/09/16 11:19:25;;;;;;;0.40;0.40;;;;;;;;;;1866539;75;26597;-57
2022/09/16 11:22:06;;;;;;;1.35;0.40;;;;;;;;;;1866985;76;26335;-53
2022/09/16 11:24:51;;;;;;;0.30;0.30;;;;;;;;;;1864909;74;26309;-52
2022/09/16 11:27:20;;;;;;;0.98;0.30;;;;;;;;;;1856038;76;27343;-54
2022/09/16 11:29:51;;;;;;;0.40;0.40;;;;;;;;;;1866959;76;27070;-54
2022/09/16 11:32:36;;;;;;;0.82;0.53;;;;;;;;;;1888056;75;26757;-59
2022/09/16 11:35:04;;;;;;;2.17;0.33;;;;;;;;;;1868659;76;26246;-59
2022/09/16 11:37:36;;;;;;;3.30;0.40;;;;;;;;;;1871143;75;26202;-60
2022/09/16 11:40:08;;;;;;;0.37;0.33;;;;;;;;;;1866384;76;26723;-59
2022/09/16 11:42:39;;;;;;;0.40;0.40;;;;;;;;;;1887970;76;26507;-60
2022/09/16 11:45:25;;;;;;;0.30;0.30;;;;;;;;;;1858191;75;26261;-63
2022/09/16 11:47:54;;;;;;;2.35;0.33;;;;;;;;;;1863642;76;26297;-60
2022/09/16 11:50:25;;;;;;;0.40;0.40;;;;;;;;;;1863502;76;26203;-59
2022/09/16 11:52:57;;;;;;;0.33;0.33;;;;;;;;;;1864587;76;26251;-59
2022/09/16 11:55:29;;;;;;;0.30;0.30;;;;;;;;;;1857000;76;26316;-59
2022/09/16 11:58:00;;;;;;;0.20;0.20;;;;;;;;;;1871615;76;26300;-60
2022/09/16 12:00:29;;;;;;;0.20;0.20;;;;;;;;;;1818908;76;26255;-59
2022/09/16 12:03:14;;;;;;;0.53;0.30;;;;;;;;;;1881627;76;26285;-61
2022/09/16 12:05:52;;;;;;;0.40;0.40;;;;;;;;;;1885735;76;26258;-61
2022/09/16 12:08:25;;;;;;;0.40;0.40;;;;;;;;;;1888433;75;26303;-58
2022/09/16 12:10:54;;;;;;;0.25;0.25;;;;;;;;;;1880409;75;26202;-61
2022/09/16 12:13:41;;;;;;;0.42;0.20;;;;;;;;;;1785812;76;26254;-61
2022/09/16 12:16:10;;;;;;;0.30;0.30;;;;;;;;;;1881469;76;26292;-61
2022/09/16 12:18:41;;;;;;;0.30;0.30;;;;;;;;;;1856564;76;26249;-60
2022/09/16 12:21:21;;;;;;;0.20;0.20;;;;;;;;;;1878247;76;26288;-62
2022/09/16 12:23:50;;;;;;;0.10;0.10;;;;;;;;;;1849002;76;27477;-65
2022/09/16 12:26:19;;;;;;;0.20;0.20;;;;;;;;;;1868132;76;26772;-59
2022/09/16 12:29:04;;;;;;;0.20;0.20;;;;;;;;;;1859801;76;26644;-59
2022/09/16 12:31:39;;;;;;;0.20;0.20;;;;;;;;;;1877156;76;26349;-59
2022/09/16 12:34:11;;;;;;;0.20;0.20;;;;;;;;;;1870798;76;26243;-59
2022/09/16 12:36:39;;;;;;;0.47;0.20;;;;;;;;;;1879154;76;26235;-59
2022/09/16 12:39:08;;;;;;;0.15;0.15;;;;;;;;;;1875728;76;26250;-59
2022/09/16 12:41:43;;;;;;;0.10;0.10;;;;;;;;;;1868138;76;26246;-59
2022/09/16 12:44:24;;;;;;;0.10;0.10;;;;;;;;;;1872281;76;26243;-60
2022/09/16 12:46:59;;;;;;;0.10;0.10;;;;;;;;;;1866249;76;26320;-60
2022/09/16 12:49:31;;;;;;;0.10;0.10;;;;;;;;;;1858322;76;26824;-60
2022/09/16 12:52:09;;;;;;;0.10;0.10;;;;;;;;;;1859422;76;26703;-60
2022/09/16 12:54:56;;;;;;;0.20;0.20;;;;;;;;;;1861142;76;26231;-62
2022/09/16 12:57:41;;;;;;;0.30;0.30;;;;;;;;;;1869519;76;26764;-59
2022/09/16 13:00:10;;;;;;;0.10;0.10;;;;;;;;;;1848809;76;26265;-60
2022/09/16 13:02:39;;;;;;;0.20;0.20;;;;;;;;;;1860900;76;26764;-59
2022/09/16 13:05:11;;;;;;;0.10;0.10;;;;;;;;;;1877132;76;26875;-60
2022/09/16 13:07:39;;;;;;;0.20;0.20;;;;;;;;;;1863607;76;26243;-60
2022/09/16 13:10:09;;;;;;;0.30;0.30;;;;;;;;;;1864333;76;26328;-59
2022/09/16 13:12:36;;;;;;;0.55;0.23;;;;;;;;;;1852846;76;26711;-59
2022/09/16 13:15:04;;;;;;;0.10;0.10;;;;;;;;;;1848816;76;26187;-61
2022/09/16 13:17:33;;;;;;;0.17;0.17;;;;;;;;;;1849302;76;27399;-60
2022/09/16 13:20:04;;;;;;;0.57;0.35;;;;;;;;;;1849154;76;26781;-64
2022/09/16 13:22:32;;;;;;;0.30;0.20;;;;;;;;;;1874104;76;26302;-60
2022/09/16 13:25:19;;;;;;;0.25;0.25;;;;;;;;;;1863788;76;26647;-63
2022/09/16 13:28:04;;;;;;;0.10;0.10;;;;;;;;;;1870575;76;26309;-59
2022/09/16 13:30:33;;;;;;;0.20;0.20;;;;;;;;;;1867379;76;26325;-62
2022/09/16 13:33:02;;;;;;;0.10;0.10;;;;;;;;;;1879979;76;26264;-61
2022/09/16 13:35:33;;;;;;;0.20;0.20;;;;;;;;;;1879543;76;26678;-60
2022/09/16 13:38:02;;;;;;;0.20;0.20;;;;;;;;;;1876911;76;26617;-60
2022/09/16 13:40:30;;;;;;;0.10;0.10;;;;;;;;;;1876584;76;26668;-60
2022/09/16 13:43:11;;;;;;;0.23;0.23;;;;;;;;;;1874207;76;26228;-61
2022/09/16 13:45:40;;;;;;;0.13;0.13;;;;;;;;;;1860793;76;26665;-60
2022/09/16 13:48:11;;;;;;;0.25;0.25;;;;;;;;;;1868978;76;26305;-60
2022/09/16 13:50:40;;;;;;;0.10;0.10;;;;;;;;;;1866099;75;26246;-60
2022/09/16 13:53:09;;;;;;;0.20;0.20;;;;;;;;;;1849531;75;26284;-61
2022/09/16 13:55:37;;;;;;;0.08;0.08;;;;;;;;;;1848823;76;26340;-61
2022/09/16 13:58:12;;;;;;;0.17;0.17;;;;;;;;;;1858757;76;26231;-62
2022/09/16 14:00:47;;;;;;;0.20;0.20;;;;;;;;;;1874105;76;26204;-60
2022/09/16 14:03:25;;;;;;;0.20;0.20;;;;;;;;;;1859630;75;26694;-60
2022/09/16 14:06:00;;;;;;;0.17;0.17;;;;;;;;;;1849380;76;26321;-59
2022/09/16 14:08:29;;;;;;;0.10;0.10;;;;;;;;;;1820612;78;26371;-59
2022/09/16 14:11:01;;;;;;;0.13;0.13;;;;;;;;;;1821531;78;26253;-59
2022/09/16 14:13:39;;;;;;;0.10;0.10;;;;;;;;;;1821664;78;26261;-61
2022/09/16 14:16:11;;;;;;;0.13;0.13;;;;;;;;;;1825011;78;26351;-60
2022/09/16 14:18:40;;;;;;;0.10;0.10;;;;;;;;;;1868303;76;27367;-62
2022/09/16 14:21:18;;;;;;;0.20;0.20;;;;;;;;;;1871855;75;26749;-61
2022/09/16 14:23:46;;;;;;;0.30;0.30;;;;;;;;;;1877469;75;26269;-60
2022/09/16 14:26:15;;;;;;;2.83;0.28;;;;;;;;;;1872183;75;26319;-52
2022/09/16 14:28:42;;;;;;;0.10;0.10;;;;;;;;;;1874169;75;26403;-49
2022/09/16 14:31:11;;;;;;;2.10;0.23;;;;;;;;;;1884667;75;26249;-55
2022/09/16 14:33:43;;;;;;;0.30;0.20;;;;;;;;;;1883049;75;26428;-60
2022/09/16 14:36:12;;;;;;;0.90;0.23;;;;;;;;;;1890075;75;26230;-58
2022/09/16 14:38:43;;;;;;;1.00;0.25;;;;;;;;;;1887737;75;26853;-61
2022/09/16 14:41:12;;;;;;;5.30;0.28;;;;;;;;;;1874588;75;26710;-60
2022/09/16 14:43:40;;;;;;;0.42;0.37;;;;;;;;;;1887249;75;26690;-64
2022/09/16 14:46:07;;;;;;;0.17;0.17;;;;;;;;;;1876548;75;26335;-56
2022/09/16 14:48:36;;;;;;;0.42;0.20;;;;;;;;;;1882701;75;26362;-60
2022/09/16 14:51:05;;;;;;;0.20;0.20;;;;;;;;;;1875909;75;26740;-58
2022/09/16 14:53:35;;;;;;;0.20;0.20;;;;;;;;;;1869870;75;26724;-59
2022/09/16 14:56:03;;;;;;;0.10;0.10;;;;;;;;;;1868007;75;26270;-58
2022/09/16 14:58:31;;;;;;;0.10;0.10;;;;;;;;;;1875018;75;26249;-58
2022/09/16 15:01:03;;;;;;;0.20;0.20;;;;;;;;;;1866767;75;26265;-53
2022/09/16 15:03:32;;;;;;;0.10;0.10;;;;;;;;;;1878280;75;26254;-49